sensor_id;sensor_type;location;lat;lon;timestamp;pressure;altitude;pressure_sealevel;temperature;humidity
73383;BME280;61600;48.126;11.542;2023-04-21T00:00:47;95275.81;;;9.08;69.86
73383;BME280;61600;48.126;11.542;2023-04-21T00:03:12;95264.00;;;9.23;69.71
73383;BME280;61600;48.126;11.542;2023-04-21T00:05:38;95268.69;;;8.83;70.49
73383;BME280;61600;48.126;11.542;2023-04-21T00:08:07;95259.31;;;8.71;71.51
73383;BME280;61600;48.126;11.542;2023-04-21T00:10:33;95259.47;;;8.84;71.29
73383;BME280;61600;48.126;11.542;2023-04-21T00:12:59;95253.63;;;9.01;71.13
73383;BME280;61600;48.126;11.542;2023-04-21T00:15:25;95255.25;;;9.02;70.98
73383;BME280;61600;48.126;11.542;2023-04-21T00:17:50;95258.69;;;9.13;70.46
73383;BME280;61600;48.126;11.542;2023-04-21T00:20:16;95248.59;;;9.18;70.42
73383;BME280;61600;48.126;11.542;2023-04-21T00:22:42;95253.22;;;9.18;70.29
73383;BME280;61600;48.126;11.542;2023-04-21T00:25:08;95248.38;;;9.15;70.45
73383;BME280;61600;48.126;11.542;2023-04-21T00:27:34;95252.13;;;8.90;71.25
73383;BME280;61600;48.126;11.542;2023-04-21T00:30:00;95258.31;;;8.90;71.33
73383;BME280;61600;48.126;11.542;2023-04-21T00:32:26;95252.41;;;9.17;70.58
73383;BME280;61600;48.126;11.542;2023-04-21T00:34:51;95256.41;;;8.96;70.40
73383;BME280;61600;48.126;11.542;2023-04-21T00:37:17;95247.00;;;9.12;69.99
73383;BME280;61600;48.126;11.542;2023-04-21T00:39:43;95252.66;;;9.21;70.31
73383;BME280;61600;48.126;11.542;2023-04-21T00:42:09;95246.91;;;9.51;69.47
73383;BME280;61600;48.126;11.542;2023-04-21T00:44:35;95238.72;;;9.56;69.00
73383;BME280;61600;48.126;11.542;2023-04-21T00:47:00;95243.00;;;9.33;69.47
73383;BME280;61600;48.126;11.542;2023-04-21T00:49:27;95230.41;;;9.19;69.80
73383;BME280;61600;48.126;11.542;2023-04-21T00:51:53;95237.56;;;9.10;70.85
73383;BME280;61600;48.126;11.542;2023-04-21T00:54:20;95233.34;;;9.22;70.42
73383;BME280;61600;48.126;11.542;2023-04-21T00:56:47;95235.78;;;9.24;70.09
73383;BME280;61600;48.126;11.542;2023-04-21T00:59:13;95228.13;;;9.02;70.64
73383;BME280;61600;48.126;11.542;2023-04-21T01:01:39;95217.94;;;9.18;70.52
73383;BME280;61600;48.126;11.542;2023-04-21T01:04:05;95222.97;;;9.29;69.95
73383;BME280;61600;48.126;11.542;2023-04-21T01:06:32;95222.69;;;9.31;70.06
73383;BME280;61600;48.126;11.542;2023-04-21T01:09:01;95220.25;;;9.29;69.95
73383;BME280;61600;48.126;11.542;2023-04-21T01:11:29;95213.81;;;9.25;70.11
73383;BME280;61600;48.126;11.542;2023-04-21T01:13:56;95218.13;;;8.97;70.44
73383;BME280;61600;48.126;11.542;2023-04-21T01:16:22;95213.84;;;9.20;70.48
73383;BME280;61600;48.126;11.542;2023-04-21T01:18:49;95225.84;;;9.14;70.73
73383;BME280;61600;48.126;11.542;2023-04-21T01:21:15;95223.78;;;9.30;70.07
73383;BME280;61600;48.126;11.542;2023-04-21T01:23:42;95215.75;;;9.20;70.27
73383;BME280;61600;48.126;11.542;2023-04-21T01:26:08;95231.91;;;9.30;70.24
73383;BME280;61600;48.126;11.542;2023-04-21T01:28:34;95213.94;;;9.39;69.57
73383;BME280;61600;48.126;11.542;2023-04-21T01:31:00;95216.34;;;9.40;69.68
73383;BME280;61600;48.126;11.542;2023-04-21T01:33:27;95220.44;;;9.38;69.52
73383;BME280;61600;48.126;11.542;2023-04-21T01:35:53;95215.53;;;9.40;69.32
73383;BME280;61600;48.126;11.542;2023-04-21T01:38:20;95218.06;;;9.31;69.62
73383;BME280;61600;48.126;11.542;2023-04-21T01:40:49;95231.47;;;9.46;70.03
73383;BME280;61600;48.126;11.542;2023-04-21T01:43:17;95229.28;;;9.48;69.58
73383;BME280;61600;48.126;11.542;2023-04-21T01:45:44;95226.44;;;9.35;69.05
73383;BME280;61600;48.126;11.542;2023-04-21T01:48:17;95223.41;;;9.41;69.55
73383;BME280;61600;48.126;11.542;2023-04-21T01:50:49;95232.13;;;9.38;68.80
73383;BME280;61600;48.126;11.542;2023-04-21T01:53:15;95225.22;;;9.22;69.23
73383;BME280;61600;48.126;11.542;2023-04-21T01:55:40;95228.69;;;9.28;70.19
73383;BME280;61600;48.126;11.542;2023-04-21T01:58:06;95225.69;;;9.29;69.71
73383;BME280;61600;48.126;11.542;2023-04-21T02:00:32;95214.81;;;9.29;69.75
73383;BME280;61600;48.126;11.542;2023-04-21T02:02:58;95216.66;;;9.39;70.01
73383;BME280;61600;48.126;11.542;2023-04-21T02:05:23;95209.75;;;9.23;70.33
73383;BME280;61600;48.126;11.542;2023-04-21T02:07:49;95218.53;;;9.38;70.19
73383;BME280;61600;48.126;11.542;2023-04-21T02:10:15;95225.63;;;9.34;70.24
73383;BME280;61600;48.126;11.542;2023-04-21T02:12:41;95223.41;;;9.41;69.59
73383;BME280;61600;48.126;11.542;2023-04-21T02:15:07;95224.94;;;9.47;69.82
73383;BME280;61600;48.126;11.542;2023-04-21T02:17:36;95225.47;;;9.49;69.85
73383;BME280;61600;48.126;11.542;2023-04-21T02:20:02;95218.94;;;9.50;69.91
73383;BME280;61600;48.126;11.542;2023-04-21T02:22:28;95210.69;;;9.37;70.43
73383;BME280;61600;48.126;11.542;2023-04-21T02:24:54;95211.94;;;9.44;70.45
73383;BME280;61600;48.126;11.542;2023-04-21T02:27:20;95218.94;;;9.50;70.16
73383;BME280;61600;48.126;11.542;2023-04-21T02:29:46;95212.19;;;9.48;70.39
73383;BME280;61600;48.126;11.542;2023-04-21T02:32:12;95204.63;;;9.45;70.68
73383;BME280;61600;48.126;11.542;2023-04-21T02:34:37;95198.34;;;9.49;70.67
73383;BME280;61600;48.126;11.542;2023-04-21T02:37:03;95203.69;;;9.54;70.38
73383;BME280;61600;48.126;11.542;2023-04-21T02:39:29;95201.50;;;9.57;70.39
73383;BME280;61600;48.126;11.542;2023-04-21T02:41:55;95195.84;;;9.53;70.05
73383;BME280;61600;48.126;11.542;2023-04-21T02:44:21;95194.72;;;9.54;70.41
73383;BME280;61600;48.126;11.542;2023-04-21T02:46:47;95195.03;;;9.52;70.50
73383;BME280;61600;48.126;11.542;2023-04-21T02:49:12;95189.06;;;9.50;70.41
73383;BME280;61600;48.126;11.542;2023-04-21T02:51:38;95191.31;;;9.43;70.79
73383;BME280;61600;48.126;11.542;2023-04-21T02:54:04;95190.19;;;9.49;70.62
73383;BME280;61600;48.126;11.542;2023-04-21T02:56:30;95182.44;;;9.62;69.70
73383;BME280;61600;48.126;11.542;2023-04-21T02:58:56;95189.72;;;9.66;69.82
73383;BME280;61600;48.126;11.542;2023-04-21T03:01:22;95188.94;;;9.61;70.19
73383;BME280;61600;48.126;11.542;2023-04-21T03:03:48;95186.19;;;9.66;70.48
73383;BME280;61600;48.126;11.542;2023-04-21T03:06:13;95186.66;;;9.49;70.84
73383;BME280;61600;48.126;11.542;2023-04-21T03:08:39;95191.06;;;9.45;70.99
73383;BME280;61600;48.126;11.542;2023-04-21T03:11:05;95184.50;;;9.22;71.65
73383;BME280;61600;48.126;11.542;2023-04-21T03:13:30;95183.13;;;9.48;70.66
73383;BME280;61600;48.126;11.542;2023-04-21T03:15:56;95192.38;;;9.47;70.87
73383;BME280;61600;48.126;11.542;2023-04-21T03:18:22;95190.34;;;9.34;71.27
73383;BME280;61600;48.126;11.542;2023-04-21T03:20:48;95192.31;;;9.29;71.14
73383;BME280;61600;48.126;11.542;2023-04-21T03:23:13;95197.53;;;9.25;71.47
73383;BME280;61600;48.126;11.542;2023-04-21T03:25:40;95198.06;;;9.22;71.43
73383;BME280;61600;48.126;11.542;2023-04-21T03:28:06;95198.06;;;9.22;71.48
73383;BME280;61600;48.126;11.542;2023-04-21T03:30:32;95196.16;;;9.23;71.31
73383;BME280;61600;48.126;11.542;2023-04-21T03:32:57;95194.34;;;9.18;71.34
73383;BME280;61600;48.126;11.542;2023-04-21T03:35:23;95198.41;;;9.16;71.42
73383;BME280;61600;48.126;11.542;2023-04-21T03:37:49;95194.84;;;9.20;71.34
73383;BME280;61600;48.126;11.542;2023-04-21T03:40:15;95197.91;;;9.14;71.07
73383;BME280;61600;48.126;11.542;2023-04-21T03:42:41;95196.03;;;9.09;71.70
73383;BME280;61600;48.126;11.542;2023-04-21T03:45:08;95196.53;;;9.16;71.74
73383;BME280;61600;48.126;11.542;2023-04-21T03:47:34;95203.84;;;9.16;71.69
73383;BME280;61600;48.126;11.542;2023-04-21T03:50:02;95193.88;;;9.11;71.70
73383;BME280;61600;48.126;11.542;2023-04-21T03:52:27;95192.13;;;9.20;71.32
73383;BME280;61600;48.126;11.542;2023-04-21T03:54:53;95200.78;;;9.22;71.31
73383;BME280;61600;48.126;11.542;2023-04-21T03:57:19;95186.19;;;9.18;71.32
73383;BME280;61600;48.126;11.542;2023-04-21T03:59:45;95186.81;;;9.10;71.25
73383;BME280;61600;48.126;11.542;2023-04-21T04:02:11;95189.56;;;9.05;72.27
73383;BME280;61600;48.126;11.542;2023-04-21T04:04:36;95181.97;;;9.07;71.72
73383;BME280;61600;48.126;11.542;2023-04-21T04:07:02;95190.13;;;9.07;71.63
73383;BME280;61600;48.126;11.542;2023-04-21T04:09:28;95192.28;;;9.05;72.15
73383;BME280;61600;48.126;11.542;2023-04-21T04:11:54;95193.41;;;9.04;72.05
73383;BME280;61600;48.126;11.542;2023-04-21T04:14:20;95208.63;;;9.00;72.19
73383;BME280;61600;48.126;11.542;2023-04-21T04:16:46;95210.22;;;9.01;71.97
73383;BME280;61600;48.126;11.542;2023-04-21T04:19:12;95216.19;;;9.03;71.81
73383;BME280;61600;48.126;11.542;2023-04-21T04:21:37;95209.97;;;8.97;71.43
73383;BME280;61600;48.126;11.542;2023-04-21T04:24:03;95211.38;;;8.95;72.12
73383;BME280;61600;48.126;11.542;2023-04-21T04:26:33;95217.28;;;9.02;71.72
73383;BME280;61600;48.126;11.542;2023-04-21T04:29:00;95209.13;;;9.02;71.42
73383;BME280;61600;48.126;11.542;2023-04-21T04:31:29;95209.94;;;9.02;71.86
73383;BME280;61600;48.126;11.542;2023-04-21T04:33:56;95197.47;;;9.01;71.81
73383;BME280;61600;48.126;11.542;2023-04-21T04:36:23;95209.44;;;9.00;71.98
73383;BME280;61600;48.126;11.542;2023-04-21T04:38:48;95217.63;;;8.95;72.09
73383;BME280;61600;48.126;11.542;2023-04-21T04:41:14;95219.00;;;8.93;72.02
73383;BME280;61600;48.126;11.542;2023-04-21T04:43:41;95212.53;;;8.89;72.25
73383;BME280;61600;48.126;11.542;2023-04-21T04:46:07;95214.66;;;8.92;72.29
73383;BME280;61600;48.126;11.542;2023-04-21T04:48:40;95213.00;;;8.96;71.81
73383;BME280;61600;48.126;11.542;2023-04-21T04:51:06;95201.34;;;8.95;71.95
73383;BME280;61600;48.126;11.542;2023-04-21T04:53:31;95216.94;;;9.09;71.63
73383;BME280;61600;48.126;11.542;2023-04-21T04:55:58;95219.41;;;9.05;72.01
73383;BME280;61600;48.126;11.542;2023-04-21T04:58:24;95216.34;;;9.12;71.58
73383;BME280;61600;48.126;11.542;2023-04-21T05:00:53;95220.94;;;9.16;71.31
73383;BME280;61600;48.126;11.542;2023-04-21T05:03:19;95214.47;;;9.12;71.26
73383;BME280;61600;48.126;11.542;2023-04-21T05:05:44;95218.00;;;9.13;71.47
73383;BME280;61600;48.126;11.542;2023-04-21T05:08:19;95235.88;;;9.14;71.44
73383;BME280;61600;48.126;11.542;2023-04-21T05:10:45;95235.31;;;9.17;71.38
73383;BME280;61600;48.126;11.542;2023-04-21T05:13:11;95234.34;;;9.08;71.09
73383;BME280;61600;48.126;11.542;2023-04-21T05:15:37;95231.44;;;9.23;71.49
73383;BME280;61600;48.126;11.542;2023-04-21T05:18:03;95237.66;;;9.28;71.37
73383;BME280;61600;48.126;11.542;2023-04-21T05:20:28;95238.16;;;9.30;71.12
73383;BME280;61600;48.126;11.542;2023-04-21T05:22:54;95243.56;;;9.35;70.35
73383;BME280;61600;48.126;11.542;2023-04-21T05:25:20;95242.75;;;9.35;70.40
73383;BME280;61600;48.126;11.542;2023-04-21T05:27:46;95232.97;;;9.34;69.63
73383;BME280;61600;48.126;11.542;2023-04-21T05:30:12;95231.06;;;9.34;70.29
73383;BME280;61600;48.126;11.542;2023-04-21T05:32:38;95242.97;;;9.38;70.42
73383;BME280;61600;48.126;11.542;2023-04-21T05:35:04;95244.75;;;9.48;69.98
73383;BME280;61600;48.126;11.542;2023-04-21T05:37:31;95239.78;;;9.55;69.46
73383;BME280;61600;48.126;11.542;2023-04-21T05:39:57;95235.69;;;9.58;69.01
73383;BME280;61600;48.126;11.542;2023-04-21T05:42:23;95229.78;;;9.50;69.59
73383;BME280;61600;48.126;11.542;2023-04-21T05:44:49;95237.28;;;9.64;69.34
73383;BME280;61600;48.126;11.542;2023-04-21T05:47:15;95233.28;;;9.56;69.07
73383;BME280;61600;48.126;11.542;2023-04-21T05:49:41;95238.81;;;9.70;68.87
73383;BME280;61600;48.126;11.542;2023-04-21T05:52:09;95233.84;;;9.77;68.66
73383;BME280;61600;48.126;11.542;2023-04-21T05:54:35;95231.63;;;9.79;68.34
73383;BME280;61600;48.126;11.542;2023-04-21T05:57:01;95218.28;;;9.82;68.23
73383;BME280;61600;48.126;11.542;2023-04-21T05:59:27;95223.81;;;9.96;68.05
73383;BME280;61600;48.126;11.542;2023-04-21T06:01:53;95219.38;;;10.05;67.92
73383;BME280;61600;48.126;11.542;2023-04-21T06:04:19;95228.50;;;10.14;67.64
73383;BME280;61600;48.126;11.542;2023-04-21T06:06:45;95230.16;;;10.10;67.64
73383;BME280;61600;48.126;11.542;2023-04-21T06:09:11;95228.50;;;10.14;66.84
73383;BME280;61600;48.126;11.542;2023-04-21T06:11:40;95232.88;;;10.34;66.93
73383;BME280;61600;48.126;11.542;2023-04-21T06:14:06;95227.25;;;10.25;65.42
73383;BME280;61600;48.126;11.542;2023-04-21T06:16:32;95232.63;;;10.30;66.26
73383;BME280;61600;48.126;11.542;2023-04-21T06:18:59;95229.78;;;10.40;64.90
73383;BME280;61600;48.126;11.542;2023-04-21T06:21:25;95221.53;;;10.27;66.19
73383;BME280;61600;48.126;11.542;2023-04-21T06:23:50;95218.97;;;10.54;65.72
73383;BME280;61600;48.126;11.542;2023-04-21T06:26:16;95209.81;;;10.82;64.37
73383;BME280;61600;48.126;11.542;2023-04-21T06:28:42;95210.94;;;10.95;63.48
73383;BME280;61600;48.126;11.542;2023-04-21T06:31:08;95215.16;;;10.55;64.76
73383;BME280;61600;48.126;11.542;2023-04-21T06:33:40;95205.69;;;10.85;64.02
73383;BME280;61600;48.126;11.542;2023-04-21T06:36:06;95207.06;;;11.01;63.60
73383;BME280;61600;48.126;11.542;2023-04-21T06:38:32;95209.00;;;11.28;62.23
73383;BME280;61600;48.126;11.542;2023-04-21T06:40:57;95209.09;;;11.23;62.35
73383;BME280;61600;48.126;11.542;2023-04-21T06:43:24;95208.63;;;11.62;61.51
73383;BME280;61600;48.126;11.542;2023-04-21T06:45:50;95205.84;;;11.80;61.16
73383;BME280;61600;48.126;11.542;2023-04-21T06:48:25;95208.56;;;11.80;60.84
73383;BME280;61600;48.126;11.542;2023-04-21T06:50:56;95194.44;;;11.92;60.39
73383;BME280;61600;48.126;11.542;2023-04-21T06:53:22;95211.66;;;12.15;60.10
73383;BME280;61600;48.126;11.542;2023-04-21T06:55:48;95209.34;;;12.22;59.80
73383;BME280;61600;48.126;11.542;2023-04-21T06:58:14;95194.69;;;12.31;59.55
73383;BME280;61600;48.126;11.542;2023-04-21T07:00:40;95200.91;;;12.32;59.69
73383;BME280;61600;48.126;11.542;2023-04-21T07:03:06;95198.16;;;12.45;59.64
73383;BME280;61600;48.126;11.542;2023-04-21T07:05:32;95197.47;;;12.40;59.62
73383;BME280;61600;48.126;11.542;2023-04-21T07:07:58;95204.31;;;12.51;59.66
73383;BME280;61600;48.126;11.542;2023-04-21T07:10:26;95200.53;;;12.61;59.46
73383;BME280;61600;48.126;11.542;2023-04-21T07:12:53;95196.75;;;12.48;59.43
73383;BME280;61600;48.126;11.542;2023-04-21T07:15:19;95202.75;;;12.36;60.25
73383;BME280;61600;48.126;11.542;2023-04-21T07:17:45;95193.06;;;12.52;60.05
73383;BME280;61600;48.126;11.542;2023-04-21T07:20:11;95191.97;;;12.53;59.87
73383;BME280;61600;48.126;11.542;2023-04-21T07:22:37;95191.34;;;12.57;59.08
73383;BME280;61600;48.126;11.542;2023-04-21T07:25:03;95188.94;;;12.55;59.17
73383;BME280;61600;48.126;11.542;2023-04-21T07:27:33;95188.19;;;12.41;59.78
73383;BME280;61600;48.126;11.542;2023-04-21T07:29:59;95190.97;;;12.49;59.26
73383;BME280;61600;48.126;11.542;2023-04-21T07:32:25;95198.47;;;12.44;59.50
73383;BME280;61600;48.126;11.542;2023-04-21T07:34:51;95199.00;;;12.32;59.89
73383;BME280;61600;48.126;11.542;2023-04-21T07:37:17;95200.69;;;12.42;59.40
73383;BME280;61600;48.126;11.542;2023-04-21T07:39:43;95194.16;;;12.65;59.36
73383;BME280;61600;48.126;11.542;2023-04-21T07:42:08;95194.34;;;12.69;58.93
73383;BME280;61600;48.126;11.542;2023-04-21T07:44:36;95196.03;;;12.78;58.63
73383;BME280;61600;48.126;11.542;2023-04-21T07:47:02;95203.84;;;12.93;57.90
73383;BME280;61600;48.126;11.542;2023-04-21T07:49:27;95207.75;;;13.01;58.10
73383;BME280;61600;48.126;11.542;2023-04-21T07:51:53;95204.84;;;12.75;58.41
73383;BME280;61600;48.126;11.542;2023-04-21T07:54:19;95208.06;;;12.99;58.00
73383;BME280;61600;48.126;11.542;2023-04-21T07:56:45;95206.91;;;13.14;57.16
73383;BME280;61600;48.126;11.542;2023-04-21T07:59:10;95207.16;;;13.26;57.27
73383;BME280;61600;48.126;11.542;2023-04-21T08:01:36;95203.53;;;13.39;56.55
73383;BME280;61600;48.126;11.542;2023-04-21T08:04:02;95207.16;;;13.66;56.18
73383;BME280;61600;48.126;11.542;2023-04-21T08:06:29;95205.63;;;13.82;55.89
73383;BME280;61600;48.126;11.542;2023-04-21T08:08:57;95205.28;;;13.75;55.04
73383;BME280;61600;48.126;11.542;2023-04-21T08:11:23;95202.63;;;13.52;56.33
73383;BME280;61600;48.126;11.542;2023-04-21T08:13:49;95205.34;;;13.52;56.73
73383;BME280;61600;48.126;11.542;2023-04-21T08:16:16;95206.47;;;13.51;56.07
73383;BME280;61600;48.126;11.542;2023-04-21T08:18:42;95203.59;;;13.57;56.58
73383;BME280;61600;48.126;11.542;2023-04-21T08:21:07;95207.75;;;13.85;55.59
73383;BME280;61600;48.126;11.542;2023-04-21T08:23:33;95210.19;;;13.95;55.23
73383;BME280;61600;48.126;11.542;2023-04-21T08:26:01;95199.84;;;13.83;55.37
73383;BME280;61600;48.126;11.542;2023-04-21T08:28:27;95204.06;;;13.98;55.19
73383;BME280;61600;48.126;11.542;2023-04-21T08:30:53;95203.94;;;14.03;55.60
73383;BME280;61600;48.126;11.542;2023-04-21T08:33:18;95199.47;;;14.16;54.97
73383;BME280;61600;48.126;11.542;2023-04-21T08:35:44;95201.00;;;14.47;54.35
73383;BME280;61600;48.126;11.542;2023-04-21T08:38:10;95197.59;;;14.50;53.60
73383;BME280;61600;48.126;11.542;2023-04-21T08:40:37;95194.66;;;14.30;53.90
73383;BME280;61600;48.126;11.542;2023-04-21T08:43:04;95193.41;;;14.53;54.35
73383;BME280;61600;48.126;11.542;2023-04-21T08:45:31;95189.06;;;14.61;54.50
73383;BME280;61600;48.126;11.542;2023-04-21T08:47:59;95190.88;;;14.74;53.83
73383;BME280;61600;48.126;11.542;2023-04-21T08:50:28;95191.81;;;15.04;53.87
73383;BME280;61600;48.126;11.542;2023-04-21T08:52:55;95195.97;;;15.10;53.06
73383;BME280;61600;48.126;11.542;2023-04-21T08:55:27;95190.69;;;15.05;52.53
73383;BME280;61600;48.126;11.542;2023-04-21T08:57:53;95183.13;;;14.93;53.03
73383;BME280;61600;48.126;11.542;2023-04-21T09:00:19;95196.00;;;14.92;52.69
73383;BME280;61600;48.126;11.542;2023-04-21T09:02:56;95191.19;;;14.98;53.27
73383;BME280;61600;48.126;11.542;2023-04-21T09:05:26;95185.13;;;15.47;52.65
73383;BME280;61600;48.126;11.542;2023-04-21T09:08:06;95192.53;;;15.38;52.29
73383;BME280;61600;48.126;11.542;2023-04-21T09:10:33;95189.19;;;15.24;52.76
73383;BME280;61600;48.126;11.542;2023-04-21T09:13:05;95180.66;;;15.17;52.96
73383;BME280;61600;48.126;11.542;2023-04-21T09:15:38;95174.50;;;15.37;52.86
73383;BME280;61600;48.126;11.542;2023-04-21T09:18:16;95168.44;;;15.70;52.08
73383;BME280;61600;48.126;11.542;2023-04-21T09:20:44;95172.34;;;15.69;52.17
73383;BME280;61600;48.126;11.542;2023-04-21T09:23:10;95167.09;;;15.84;52.07
73383;BME280;61600;48.126;11.542;2023-04-21T09:25:44;95172.56;;;15.84;51.93
73383;BME280;61600;48.126;11.542;2023-04-21T09:28:12;95173.91;;;15.78;51.30
73383;BME280;61600;48.126;11.542;2023-04-21T09:30:40;95168.50;;;15.90;50.79
73383;BME280;61600;48.126;11.542;2023-04-21T09:33:07;95168.91;;;16.10;50.70
73383;BME280;61600;48.126;11.542;2023-04-21T09:35:36;95170.44;;;16.19;50.94
73383;BME280;61600;48.126;11.542;2023-04-21T09:38:09;95180.84;;;16.34;49.96
73383;BME280;61600;48.126;11.542;2023-04-21T09:40:35;95172.22;;;16.44;49.29
73383;BME280;61600;48.126;11.542;2023-04-21T09:43:01;95176.78;;;15.82;49.85
73383;BME280;61600;48.126;11.542;2023-04-21T09:45:28;95174.28;;;16.27;50.58
73383;BME280;61600;48.126;11.542;2023-04-21T09:47:56;95169.81;;;16.43;50.58
73383;BME280;61600;48.126;11.542;2023-04-21T09:50:24;95161.94;;;16.62;50.63
73383;BME280;61600;48.126;11.542;2023-04-21T09:52:52;95170.72;;;16.76;49.83
73383;BME280;61600;48.126;11.542;2023-04-21T09:55:23;95171.66;;;16.80;49.25
73383;BME280;61600;48.126;11.542;2023-04-21T09:57:51;95165.91;;;16.73;50.29
73383;BME280;61600;48.126;11.542;2023-04-21T10:00:20;95168.84;;;16.68;50.93
73383;BME280;61600;48.126;11.542;2023-04-21T10:02:50;95174.72;;;16.79;50.20
73383;BME280;61600;48.126;11.542;2023-04-21T10:05:17;95165.13;;;17.06;49.86
73383;BME280;61600;48.126;11.542;2023-04-21T10:07:44;95161.06;;;16.91;49.87
73383;BME280;61600;48.126;11.542;2023-04-21T10:10:25;95161.28;;;17.19;49.73
73383;BME280;61600;48.126;11.542;2023-04-21T10:12:51;95151.78;;;17.28;49.38
73383;BME280;61600;48.126;11.542;2023-04-21T10:15:37;95154.59;;;17.40;48.72
73383;BME280;61600;48.126;11.542;2023-04-21T10:18:25;95154.72;;;17.11;49.49
73383;BME280;61600;48.126;11.542;2023-04-21T10:20:55;95147.59;;;17.31;49.06
73383;BME280;61600;48.126;11.542;2023-04-21T10:23:41;95148.28;;;17.40;48.55
73383;BME280;61600;48.126;11.542;2023-04-21T10:26:11;95144.88;;;17.55;48.87
73383;BME280;61600;48.126;11.542;2023-04-21T10:28:57;95144.41;;;17.53;47.92
73383;BME280;61600;48.126;11.542;2023-04-21T10:39:02;95148.94;;;18.18;47.32
73383;BME280;61600;48.126;11.542;2023-04-21T10:41:30;95147.56;;;18.24;45.84
73383;BME280;61600;48.126;11.542;2023-04-21T10:44:15;95138.16;;;18.13;46.13
73383;BME280;61600;48.126;11.542;2023-04-21T10:46:45;95154.97;;;17.51;49.16
73383;BME280;61600;48.126;11.542;2023-04-21T10:49:23;95138.50;;;17.87;48.75
73383;BME280;61600;48.126;11.542;2023-04-21T10:54:41;95141.94;;;18.21;48.84
73383;BME280;61600;48.126;11.542;2023-04-21T10:57:09;95135.84;;;18.52;49.06
73383;BME280;61600;48.126;11.542;2023-04-21T10:59:36;95130.66;;;18.50;48.67
73383;BME280;61600;48.126;11.542;2023-04-21T11:02:04;95130.66;;;18.90;48.20
73383;BME280;61600;48.126;11.542;2023-04-21T11:04:30;95129.09;;;18.89;47.82
73383;BME280;61600;48.126;11.542;2023-04-21T11:07:13;95123.81;;;18.84;48.91
73383;BME280;61600;48.126;11.542;2023-04-21T11:09:42;95125.50;;;19.16;47.95
73383;BME280;61600;48.126;11.542;2023-04-21T11:12:13;95123.47;;;19.29;46.81
73383;BME280;61600;48.126;11.542;2023-04-21T11:14:42;95119.19;;;19.43;48.08
73383;BME280;61600;48.126;11.542;2023-04-21T11:17:14;95110.66;;;19.64;47.56
73383;BME280;61600;48.126;11.542;2023-04-21T11:19:41;95097.84;;;19.56;47.37
73383;BME280;61600;48.126;11.542;2023-04-21T11:22:09;95107.38;;;19.59;47.84
73383;BME280;61600;48.126;11.542;2023-04-21T11:24:35;95104.59;;;19.74;46.88
73383;BME280;61600;48.126;11.542;2023-04-21T11:27:01;95100.59;;;19.56;47.80
73383;BME280;61600;48.126;11.542;2023-04-21T11:29:27;95102.13;;;19.69;46.92
73383;BME280;61600;48.126;11.542;2023-04-21T11:31:56;95101.63;;;19.99;46.50
73383;BME280;61600;48.126;11.542;2023-04-21T11:34:25;95096.25;;;20.21;46.28
73383;BME280;61600;48.126;11.542;2023-04-21T11:36:52;95093.97;;;19.92;46.13
73383;BME280;61600;48.126;11.542;2023-04-21T11:39:18;95096.69;;;20.23;46.22
73383;BME280;61600;48.126;11.542;2023-04-21T11:41:48;95092.50;;;19.79;46.16
73383;BME280;61600;48.126;11.542;2023-04-21T11:46:56;95100.28;;;20.59;45.31
73383;BME280;61600;48.126;11.542;2023-04-21T11:49:26;95090.84;;;20.79;44.43
73383;BME280;61600;48.126;11.542;2023-04-21T11:51:55;95092.44;;;20.99;43.82
73383;BME280;61600;48.126;11.542;2023-04-21T11:54:23;95085.69;;;20.97;44.19
73383;BME280;61600;48.126;11.542;2023-04-21T11:56:49;95089.44;;;21.08;43.64
73383;BME280;61600;48.126;11.542;2023-04-21T11:59:18;95090.41;;;21.15;44.19
73383;BME280;61600;48.126;11.542;2023-04-21T12:01:50;95095.22;;;21.18;42.83
73383;BME280;61600;48.126;11.542;2023-04-21T12:04:21;95093.28;;;21.41;42.23
73383;BME280;61600;48.126;11.542;2023-04-21T12:09:21;95082.84;;;21.54;41.93
73383;BME280;61600;48.126;11.542;2023-04-21T12:11:51;95081.38;;;20.80;43.74
73383;BME280;61600;48.126;11.542;2023-04-21T12:14:20;95084.44;;;21.55;42.53
73383;BME280;61600;48.126;11.542;2023-04-21T12:16:51;95080.81;;;21.74;43.14
73383;BME280;61600;48.126;11.542;2023-04-21T12:19:33;95078.53;;;21.79;43.42
73383;BME280;61600;48.126;11.542;2023-04-21T12:21:59;95074.47;;;21.96;42.89
73383;BME280;61600;48.126;11.542;2023-04-21T12:24:26;95080.06;;;22.00;42.06
73383;BME280;61600;48.126;11.542;2023-04-21T12:26:52;95086.03;;;22.28;40.65
73383;BME280;61600;48.126;11.542;2023-04-21T12:29:18;95089.03;;;22.42;41.67
73383;BME280;61600;48.126;11.542;2023-04-21T12:31:44;95094.13;;;22.66;41.59
73383;BME280;61600;48.126;11.542;2023-04-21T12:34:10;95086.19;;;22.95;42.00
73383;BME280;61600;48.126;11.542;2023-04-21T12:36:36;95087.38;;;22.94;40.51
73383;BME280;61600;48.126;11.542;2023-04-21T12:39:03;95075.22;;;23.05;40.12
73383;BME280;61600;48.126;11.542;2023-04-21T12:41:29;95090.06;;;22.86;37.81
73383;BME280;61600;48.126;11.542;2023-04-21T12:43:54;95072.84;;;23.04;37.15
73383;BME280;61600;48.126;11.542;2023-04-21T12:46:20;95077.75;;;23.17;37.88
73383;BME280;61600;48.126;11.542;2023-04-21T12:48:46;95073.34;;;23.13;37.53
73383;BME280;61600;48.126;11.542;2023-04-21T12:51:13;95081.41;;;23.25;36.90
73383;BME280;61600;48.126;11.542;2023-04-21T12:53:41;95074.56;;;23.49;36.28
73383;BME280;61600;48.126;11.542;2023-04-21T12:56:07;95075.66;;;23.81;35.69
73383;BME280;61600;48.126;11.542;2023-04-21T12:58:33;95068.47;;;23.76;35.42
73383;BME280;61600;48.126;11.542;2023-04-21T13:00:59;95072.91;;;23.84;34.55
73383;BME280;61600;48.126;11.542;2023-04-21T13:03:25;95069.78;;;23.93;34.16
73383;BME280;61600;48.126;11.542;2023-04-21T13:05:51;95065.56;;;24.10;33.89
73383;BME280;61600;48.126;11.542;2023-04-21T13:08:17;95071.47;;;24.05;33.55
73383;BME280;61600;48.126;11.542;2023-04-21T13:10:42;95076.81;;;24.24;32.73